createdAt,value
2018-08-31T00:00:00.036Z,15.56
2018-08-31T00:00:59.942Z,15.53
2018-08-31T00:02:52.712Z,15.60
2018-08-31T00:03:52.650Z,15.53
2018-08-31T00:05:45.420Z,15.58
2018-08-31T00:06:45.341Z,15.52
2018-08-31T00:08:38.112Z,15.51
2018-08-31T00:09:38.052Z,15.44
2018-08-31T00:11:30.828Z,15.44
2018-08-31T00:12:30.757Z,15.44
2018-08-31T00:14:23.530Z,15.40
2018-08-31T00:15:23.456Z,15.40
2018-08-31T00:17:16.254Z,15.41
2018-08-31T00:18:16.174Z,15.38
2018-08-31T00:20:09.068Z,15.40
2018-08-31T00:21:09.025Z,15.43
2018-08-31T00:23:01.660Z,15.34
2018-08-31T00:24:01.577Z,15.35
2018-08-31T00:25:54.364Z,15.37
2018-08-31T00:26:54.277Z,15.35
2018-08-31T00:28:47.065Z,15.31
2018-08-31T00:29:46.977Z,15.33
2018-08-31T00:31:39.775Z,15.38
2018-08-31T00:32:39.671Z,15.35
2018-08-31T00:34:32.463Z,15.35
2018-08-31T00:35:32.374Z,15.23
2018-08-31T00:37:25.168Z,15.20
2018-08-31T00:38:25.075Z,15.19
2018-08-31T00:40:17.833Z,15.22
2018-08-31T00:41:17.767Z,15.18
2018-08-31T00:43:10.548Z,15.18
2018-08-31T00:44:10.471Z,15.13
2018-08-31T00:46:03.233Z,15.15
2018-08-31T00:47:03.172Z,15.20
2018-08-31T00:48:55.945Z,15.11
2018-08-31T00:49:55.861Z,15.11
2018-08-31T00:51:48.626Z,15.01
2018-08-31T00:52:48.562Z,15.03
2018-08-31T00:54:41.342Z,15.01
2018-08-31T00:55:41.265Z,15.03
2018-08-31T00:57:34.031Z,14.95
2018-08-31T00:58:33.958Z,14.95
2018-08-31T01:00:26.748Z,14.95
2018-08-31T01:01:26.667Z,14.85
2018-08-31T01:03:19.440Z,14.87
2018-08-31T01:04:19.363Z,14.86
2018-08-31T01:06:12.129Z,14.80
2018-08-31T01:07:12.065Z,14.83
2018-08-31T01:09:04.842Z,14.75
2018-08-31T01:10:04.764Z,14.85
2018-08-31T01:11:57.525Z,14.75
2018-08-31T01:12:57.460Z,14.82
2018-08-31T01:14:50.223Z,14.79
2018-08-31T01:15:50.148Z,14.75
2018-08-31T01:17:42.909Z,14.72
2018-08-31T01:18:42.843Z,14.74
2018-08-31T01:20:35.626Z,14.79
2018-08-31T01:21:35.537Z,14.71
2018-08-31T01:23:28.332Z,14.74
2018-08-31T01:24:28.241Z,14.74
2018-08-31T01:26:21.002Z,14.61
2018-08-31T01:27:20.938Z,14.64
2018-08-31T01:29:13.716Z,14.66
2018-08-31T01:30:13.641Z,14.56
2018-08-31T01:32:06.404Z,14.60
2018-08-31T01:33:06.339Z,14.57
2018-08-31T01:34:59.123Z,14.61
2018-08-31T01:35:59.036Z,14.56
2018-08-31T01:37:51.803Z,14.49
2018-08-31T01:38:51.735Z,14.54
2018-08-31T01:40:44.512Z,14.53
2018-08-31T01:41:44.431Z,14.35
2018-08-31T01:43:37.215Z,14.35
2018-08-31T01:44:37.130Z,14.39
2018-08-31T01:46:29.900Z,14.30
2018-08-31T01:47:29.826Z,14.24
2018-08-31T01:49:22.602Z,14.30
2018-08-31T01:50:22.530Z,14.35
2018-08-31T01:52:15.281Z,14.36
2018-08-31T01:53:15.216Z,14.31
2018-08-31T01:55:07.999Z,14.31
2018-08-31T01:56:07.908Z,14.29
2018-08-31T01:58:00.691Z,14.26
2018-08-31T01:59:00.625Z,14.19
2018-08-31T02:00:53.421Z,14.23
2018-08-31T02:01:53.334Z,14.27
2018-08-31T02:03:46.121Z,14.21
2018-08-31T02:04:46.060Z,14.09
2018-08-31T02:06:38.824Z,14.17
2018-08-31T02:07:38.754Z,14.11
2018-08-31T02:09:31.547Z,14.04
2018-08-31T02:10:31.454Z,14.17
2018-08-31T02:12:24.223Z,14.06
2018-08-31T02:13:24.151Z,14.04
2018-08-31T02:15:16.954Z,13.98
2018-08-31T02:16:16.856Z,14.04
2018-08-31T02:18:09.624Z,13.91
2018-08-31T02:19:09.558Z,13.93
2018-08-31T02:21:02.322Z,13.86
2018-08-31T02:22:02.246Z,13.87
2018-08-31T02:23:55.007Z,13.83
2018-08-31T02:24:54.942Z,13.83
2018-08-31T02:26:47.708Z,13.84
2018-08-31T02:27:47.641Z,13.88
2018-08-31T02:29:40.395Z,13.84
2018-08-31T02:30:40.333Z,13.73
2018-08-31T02:32:33.111Z,13.69
2018-08-31T02:33:33.038Z,13.75
2018-08-31T02:35:25.812Z,13.75
2018-08-31T02:36:25.737Z,13.68
2018-08-31T02:38:18.510Z,13.72
2018-08-31T02:39:18.504Z,13.73
2018-08-31T02:41:11.218Z,13.57
2018-08-31T02:42:11.143Z,13.61
2018-08-31T02:44:03.911Z,13.63
2018-08-31T02:45:03.849Z,13.53
2018-08-31T02:46:56.921Z,13.50
2018-08-31T02:47:56.846Z,13.55
2018-08-31T02:49:49.597Z,13.50
2018-08-31T02:50:49.533Z,13.57
2018-08-31T02:52:42.299Z,13.55
2018-08-31T02:53:42.226Z,13.54
2018-08-31T02:55:35.003Z,13.50
2018-08-31T02:56:34.945Z,13.50
2018-08-31T02:58:27.718Z,13.54
2018-08-31T02:59:27.644Z,13.41
2018-08-31T03:01:20.420Z,13.43
2018-08-31T03:02:20.344Z,13.41
2018-08-31T03:04:13.114Z,13.32
2018-08-31T03:05:13.043Z,13.43
2018-08-31T03:07:05.811Z,13.35
2018-08-31T03:08:05.738Z,13.28
2018-08-31T03:09:58.499Z,13.46
2018-08-31T03:10:58.442Z,13.38
2018-08-31T03:12:51.209Z,13.36
2018-08-31T03:13:51.138Z,13.27
2018-08-31T03:15:43.901Z,13.48
2018-08-31T03:16:43.842Z,13.46
2018-08-31T03:18:36.606Z,13.28
2018-08-31T03:19:36.548Z,13.50
2018-08-31T03:21:29.433Z,13.50
2018-08-31T03:22:29.243Z,13.41
2018-08-31T03:24:22.005Z,13.28
2018-08-31T03:25:21.927Z,13.36
2018-08-31T03:27:14.697Z,13.32
2018-08-31T03:28:14.617Z,13.31
2018-08-31T03:30:07.377Z,13.25
2018-08-31T03:31:07.324Z,13.46
2018-08-31T03:33:00.100Z,13.32
2018-08-31T03:34:00.021Z,13.46
2018-08-31T03:35:52.802Z,13.29
2018-08-31T03:36:52.880Z,13.36
2018-08-31T03:38:45.512Z,13.43
2018-08-31T03:39:45.443Z,13.32
2018-08-31T03:41:38.194Z,13.36
2018-08-31T03:42:38.139Z,13.53
2018-08-31T03:44:31.410Z,13.50
2018-08-31T03:45:31.321Z,13.51
2018-08-31T03:47:24.095Z,13.57
2018-08-31T03:48:24.016Z,13.54
2018-08-31T03:50:16.776Z,13.62
2018-08-31T03:51:16.751Z,13.68
2018-08-31T03:53:09.491Z,13.69
2018-08-31T03:54:09.408Z,13.73
2018-08-31T03:56:02.187Z,13.72
2018-08-31T03:57:02.110Z,13.69
2018-08-31T03:58:54.899Z,13.69
2018-08-31T03:59:54.825Z,13.72
2018-08-31T04:01:47.593Z,13.63
2018-08-31T04:02:47.531Z,13.62
2018-08-31T04:04:40.298Z,13.54
2018-08-31T04:05:40.228Z,13.62
2018-08-31T04:07:33.000Z,13.59
2018-08-31T04:08:32.915Z,13.65
2018-08-31T04:10:25.733Z,13.68
2018-08-31T04:11:25.617Z,13.62
2018-08-31T04:13:18.622Z,13.57
2018-08-31T04:14:18.327Z,13.55
2018-08-31T04:16:11.107Z,13.55
2018-08-31T04:17:11.014Z,13.61
2018-08-31T04:19:03.792Z,13.66
2018-08-31T04:20:03.720Z,13.54
2018-08-31T04:21:56.535Z,13.73
2018-08-31T04:22:56.460Z,13.57
2018-08-31T04:24:49.259Z,13.53
2018-08-31T04:25:49.161Z,13.54
2018-08-31T04:27:41.949Z,13.54
2018-08-31T04:28:41.865Z,13.47
2018-08-31T04:30:34.620Z,13.54
2018-08-31T04:31:34.554Z,13.48
2018-08-31T04:33:27.330Z,13.54
2018-08-31T04:34:27.245Z,13.38
2018-08-31T04:36:20.015Z,13.51
2018-08-31T04:37:19.956Z,13.50
2018-08-31T04:39:12.749Z,13.48
2018-08-31T04:40:12.656Z,13.51
2018-08-31T04:42:05.440Z,13.54
2018-08-31T04:43:05.373Z,13.61
2018-08-31T04:44:58.144Z,13.65
2018-08-31T04:45:58.072Z,13.72
2018-08-31T04:47:50.841Z,13.75
2018-08-31T04:48:50.759Z,13.73
2018-08-31T04:50:43.526Z,13.79
2018-08-31T04:51:43.457Z,13.86
2018-08-31T04:53:36.228Z,13.87
2018-08-31T04:54:36.156Z,13.86
2018-08-31T04:56:28.917Z,13.87
2018-08-31T04:57:28.939Z,13.88
2018-08-31T04:59:21.627Z,13.80
2018-08-31T05:00:21.547Z,13.81
2018-08-31T05:02:14.331Z,13.84
2018-08-31T05:03:14.265Z,13.81
2018-08-31T05:05:07.048Z,13.91
2018-08-31T05:06:06.975Z,13.96
2018-08-31T05:07:59.743Z,13.93
2018-08-31T05:08:59.718Z,13.91
2018-08-31T05:10:52.612Z,13.88
2018-08-31T05:11:52.506Z,13.90
2018-08-31T05:13:45.326Z,14.01
2018-08-31T05:14:45.279Z,14.04
2018-08-31T05:16:38.014Z,14.01
2018-08-31T05:17:37.937Z,14.06
2018-08-31T05:19:30.731Z,14.05
2018-08-31T05:20:30.651Z,14.04
2018-08-31T05:22:23.450Z,14.08
2018-08-31T05:23:23.379Z,14.05
2018-08-31T05:25:16.115Z,14.08
2018-08-31T05:26:16.038Z,14.16
2018-08-31T05:28:08.818Z,14.08
2018-08-31T05:29:08.737Z,14.20
2018-08-31T05:31:01.519Z,14.19
2018-08-31T05:32:01.455Z,14.16
2018-08-31T05:33:54.285Z,14.09
2018-08-31T05:34:54.152Z,14.20
2018-08-31T05:36:46.918Z,14.27
2018-08-31T05:37:46.854Z,14.26
2018-08-31T05:39:39.643Z,14.26
2018-08-31T05:40:39.550Z,14.23
2018-08-31T05:42:32.335Z,14.21
2018-08-31T05:43:32.259Z,14.30
2018-08-31T05:45:25.041Z,14.30
2018-08-31T05:46:25.025Z,14.35
2018-08-31T05:48:17.748Z,14.38
2018-08-31T05:49:17.676Z,14.52
2018-08-31T05:51:10.586Z,14.54
2018-08-31T05:52:10.380Z,14.60
2018-08-31T05:54:03.166Z,14.57
2018-08-31T05:55:03.090Z,14.66
2018-08-31T05:56:55.858Z,14.63
2018-08-31T05:57:55.793Z,14.53
2018-08-31T05:59:48.571Z,14.57
2018-08-31T06:00:48.491Z,14.64
2018-08-31T06:02:41.261Z,14.74
2018-08-31T06:03:41.187Z,14.59
2018-08-31T06:05:33.963Z,14.79
2018-08-31T06:06:33.882Z,14.64
2018-08-31T06:08:26.648Z,14.87
2018-08-31T06:09:26.584Z,14.98
2018-08-31T06:11:19.367Z,15.22
2018-08-31T06:12:19.289Z,15.33
2018-08-31T06:14:12.058Z,15.37
2018-08-31T06:15:11.978Z,15.38
2018-08-31T06:17:04.751Z,15.44
2018-08-31T06:18:04.691Z,15.51
2018-08-31T06:19:57.472Z,15.41
2018-08-31T06:20:57.433Z,15.48
2018-08-31T06:22:50.145Z,15.38
2018-08-31T06:23:50.087Z,15.46
2018-08-31T06:25:42.857Z,15.37
2018-08-31T06:26:42.787Z,15.38
2018-08-31T06:28:35.608Z,15.33
2018-08-31T06:29:35.518Z,15.43
2018-08-31T06:31:28.374Z,15.46
2018-08-31T06:32:28.350Z,15.53
2018-08-31T06:34:21.068Z,15.62
2018-08-31T06:35:20.991Z,15.58
2018-08-31T06:37:13.763Z,15.77
2018-08-31T06:38:13.705Z,15.76
2018-08-31T06:40:06.497Z,15.59
2018-08-31T06:41:06.423Z,15.51
2018-08-31T06:42:59.196Z,15.52
2018-08-31T06:43:59.132Z,15.48
2018-08-31T06:45:51.907Z,15.56
2018-08-31T06:46:51.848Z,15.62
2018-08-31T06:48:44.598Z,15.62
2018-08-31T06:49:44.531Z,15.71
2018-08-31T06:51:37.316Z,15.89
2018-08-31T06:52:37.244Z,15.88
2018-08-31T06:54:30.023Z,15.88
2018-08-31T06:55:29.942Z,16.07
2018-08-31T06:57:22.713Z,16.25
2018-08-31T06:58:22.650Z,16.13
2018-08-31T07:00:15.442Z,16.14
2018-08-31T07:01:15.358Z,16.16
2018-08-31T07:03:08.116Z,16.03
2018-08-31T07:04:08.053Z,15.88
2018-08-31T07:06:00.879Z,15.67
2018-08-31T07:07:00.758Z,15.55
2018-08-31T07:08:53.521Z,15.52
2018-08-31T07:09:53.463Z,15.58
2018-08-31T07:11:46.268Z,15.64
2018-08-31T07:12:46.176Z,15.77
2018-08-31T07:14:38.980Z,15.76
2018-08-31T07:15:38.881Z,15.89
2018-08-31T07:17:31.637Z,15.76
2018-08-31T07:18:31.585Z,15.78
2018-08-31T07:20:24.374Z,15.77
2018-08-31T07:21:24.273Z,15.77
2018-08-31T07:23:17.043Z,15.76
2018-08-31T07:24:16.976Z,15.66
2018-08-31T07:26:09.814Z,15.70
2018-08-31T07:27:09.677Z,15.77
2018-08-31T07:29:02.439Z,15.89
2018-08-31T07:30:02.374Z,15.88
2018-08-31T07:31:55.150Z,15.96
2018-08-31T07:32:55.084Z,16.01
2018-08-31T07:34:47.843Z,16.01
2018-08-31T07:35:47.787Z,16.07
2018-08-31T07:37:40.550Z,16.03
2018-08-31T07:38:40.474Z,15.91
2018-08-31T07:40:33.253Z,15.91
2018-08-31T07:41:33.171Z,15.81
2018-08-31T07:43:25.939Z,15.92
2018-08-31T07:44:25.872Z,15.91
2018-08-31T07:46:18.646Z,15.67
2018-08-31T07:47:18.570Z,15.66
2018-08-31T07:49:11.359Z,15.66
2018-08-31T07:50:11.296Z,15.74
2018-08-31T07:52:04.083Z,15.78
2018-08-31T07:53:03.998Z,15.81
2018-08-31T07:54:56.810Z,15.80
2018-08-31T07:55:56.738Z,15.81
2018-08-31T07:57:49.494Z,15.84
2018-08-31T07:58:49.438Z,15.80
2018-08-31T08:00:42.211Z,15.81
2018-08-31T08:01:42.142Z,15.74
2018-08-31T08:03:34.912Z,15.88
2018-08-31T08:05:47.687Z,16.06
2018-08-31T08:06:47.604Z,16.16
2018-08-31T08:08:40.386Z,16.18
2018-08-31T08:10:53.111Z,16.14
2018-08-31T08:11:53.030Z,16.32
2018-08-31T08:13:45.801Z,16.42
2018-08-31T08:14:45.789Z,16.45
2018-08-31T08:16:40.121Z,16.33
2018-08-31T08:17:38.460Z,16.40
2018-08-31T08:19:31.231Z,16.14
2018-08-31T08:20:31.160Z,16.26
2018-08-31T08:22:23.957Z,16.26
2018-08-31T08:23:23.867Z,16.42
2018-08-31T08:25:16.660Z,16.52
2018-08-31T08:26:16.569Z,16.66
2018-08-31T08:28:09.346Z,16.50
2018-08-31T08:29:09.275Z,16.52
2018-08-31T08:34:05.130Z,17.20
2018-08-31T08:35:05.077Z,17.43
2018-08-31T08:36:58.138Z,17.60
2018-08-31T08:37:57.978Z,17.53
2018-08-31T08:39:50.975Z,17.55
2018-08-31T08:40:50.902Z,17.57
2018-08-31T08:42:43.686Z,17.47
2018-08-31T08:43:43.607Z,17.53
2018-08-31T08:45:36.386Z,17.40
2018-08-31T08:46:36.306Z,17.46
2018-08-31T08:48:29.217Z,17.46
2018-08-31T08:49:29.018Z,17.47
2018-08-31T08:51:21.805Z,17.71
2018-08-31T08:52:21.789Z,17.86
2018-08-31T08:54:14.516Z,18.44
2018-08-31T08:55:14.438Z,18.50
2018-08-31T08:57:07.219Z,18.53
2018-08-31T08:58:07.205Z,18.68
2018-08-31T08:59:59.919Z,18.71
2018-08-31T09:00:59.850Z,18.87
2018-08-31T09:02:52.640Z,18.90
2018-08-31T09:03:52.564Z,18.87
2018-08-31T09:05:45.440Z,18.86
2018-08-31T09:06:45.270Z,18.90
2018-08-31T09:08:38.048Z,19.07
2018-08-31T09:09:37.982Z,19.20
2018-08-31T09:11:30.774Z,19.30
2018-08-31T09:12:30.798Z,19.49
2018-08-31T09:14:23.466Z,19.67
2018-08-31T09:15:23.405Z,19.80
2018-08-31T09:17:16.193Z,19.78
2018-08-31T09:18:16.111Z,19.80
2018-08-31T09:20:08.883Z,19.95
2018-08-31T09:21:08.810Z,20.00
2018-08-31T09:23:01.606Z,20.05
2018-08-31T09:24:01.530Z,19.90
2018-08-31T09:25:54.331Z,20.12
2018-08-31T09:26:54.247Z,20.02
2018-08-31T09:28:47.031Z,19.95
2018-08-31T09:29:46.955Z,19.79
2018-08-31T09:31:39.734Z,19.60
2018-08-31T09:32:39.681Z,19.45
2018-08-31T09:34:32.442Z,19.16
2018-08-31T09:35:32.381Z,19.02
2018-08-31T09:37:25.159Z,19.06
2018-08-31T09:38:25.116Z,19.07
2018-08-31T09:40:17.869Z,19.20
2018-08-31T09:41:17.794Z,19.17
2018-08-31T09:43:10.591Z,19.60
2018-08-31T09:44:10.518Z,19.71
2018-08-31T09:46:03.292Z,19.95
2018-08-31T09:47:03.224Z,19.97
2018-08-31T09:48:55.991Z,20.13
2018-08-31T09:49:55.925Z,20.26
2018-08-31T09:51:48.726Z,20.53
2018-08-31T09:52:48.665Z,20.54
2018-08-31T09:54:41.423Z,20.79
2018-08-31T09:55:41.349Z,20.81
2018-08-31T09:57:34.288Z,21.28
2018-08-31T09:58:34.066Z,21.71
2018-08-31T10:00:26.842Z,21.85
2018-08-31T10:01:26.777Z,22.02
2018-08-31T10:03:19.574Z,22.01
2018-08-31T10:04:19.503Z,22.02
2018-08-31T10:06:12.309Z,21.85
2018-08-31T10:07:12.206Z,21.89
2018-08-31T10:09:04.997Z,22.09
2018-08-31T10:10:04.932Z,22.26
2018-08-31T10:11:57.728Z,22.17
2018-08-31T10:12:57.658Z,22.38
2018-08-31T10:14:50.406Z,22.69
2018-08-31T10:15:50.357Z,22.46
2018-08-31T10:17:43.139Z,22.39
2018-08-31T10:18:43.100Z,22.41
2018-08-31T10:20:35.836Z,21.99
2018-08-31T10:21:35.797Z,21.89
2018-08-31T10:23:28.600Z,21.63
2018-08-31T10:24:28.509Z,21.64
2018-08-31T10:26:21.306Z,21.73
2018-08-31T10:27:21.241Z,21.66
2018-08-31T10:29:14.081Z,21.79
2018-08-31T10:30:14.028Z,21.85
2018-08-31T10:32:06.752Z,21.77
2018-08-31T10:33:06.679Z,21.67
2018-08-31T10:34:59.677Z,21.82
2018-08-31T10:35:59.596Z,21.73
2018-08-31T10:37:52.397Z,22.01
2018-08-31T10:38:52.352Z,22.15
2018-08-31T10:40:45.287Z,22.19
2018-08-31T10:41:45.165Z,22.20
2018-08-31T10:43:38.201Z,22.30
2018-08-31T10:44:38.112Z,22.33
2018-08-31T10:46:30.779Z,22.49
2018-08-31T10:47:30.801Z,22.29
2018-08-31T10:49:23.643Z,22.45
2018-08-31T10:50:23.497Z,22.41
2018-08-31T10:52:16.330Z,22.48
2018-08-31T10:53:16.249Z,22.49
2018-08-31T10:55:09.166Z,22.26
2018-08-31T10:56:09.020Z,22.08
2018-08-31T10:58:01.938Z,21.90
2018-08-31T10:59:01.832Z,21.75
2018-08-31T11:00:54.867Z,21.82
2018-08-31T11:01:54.561Z,21.83
2018-08-31T11:03:47.375Z,21.63
2018-08-31T11:04:47.303Z,21.58
2018-08-31T11:06:40.169Z,21.38
2018-08-31T11:07:40.053Z,21.63
2018-08-31T11:09:32.848Z,21.55
2018-08-31T11:10:32.769Z,21.81
2018-08-31T11:12:25.611Z,21.67
2018-08-31T11:13:25.537Z,21.82
2018-08-31T11:15:18.326Z,21.96
2018-08-31T11:16:18.202Z,22.11
2018-08-31T11:18:11.008Z,22.23
2018-08-31T11:19:10.924Z,22.29
2018-08-31T11:21:03.710Z,22.35
2018-08-31T11:22:03.650Z,22.38
2018-08-31T11:23:56.440Z,22.51
2018-08-31T11:24:56.363Z,22.61
2018-08-31T11:26:49.135Z,22.54
2018-08-31T11:27:49.106Z,22.64
2018-08-31T11:29:41.862Z,22.61
2018-08-31T11:30:41.828Z,22.66
2018-08-31T11:32:34.644Z,22.69
2018-08-31T11:33:34.516Z,22.72
2018-08-31T11:35:27.308Z,23.15
2018-08-31T11:36:27.232Z,23.16
2018-08-31T11:38:20.051Z,23.07
2018-08-31T11:39:19.971Z,23.22
2018-08-31T11:41:12.746Z,23.41
2018-08-31T11:42:12.690Z,23.14
2018-08-31T11:44:05.535Z,23.00
2018-08-31T11:45:05.437Z,22.97
2018-08-31T11:46:58.326Z,22.64
2018-08-31T11:47:58.256Z,22.51
2018-08-31T11:49:51.091Z,22.41
2018-08-31T11:50:51.009Z,22.45
2018-08-31T11:52:43.794Z,22.48
2018-08-31T11:53:43.737Z,22.48
2018-08-31T11:55:36.506Z,22.38
2018-08-31T11:56:36.436Z,22.39
2018-08-31T11:58:29.223Z,22.56
2018-08-31T11:59:29.151Z,22.52
2018-08-31T12:01:22.034Z,22.45
2018-08-31T12:02:21.874Z,22.64
2018-08-31T12:04:14.647Z,22.97
2018-08-31T12:05:14.585Z,23.06
2018-08-31T12:07:07.388Z,23.00
2018-08-31T12:08:07.320Z,23.04
2018-08-31T12:10:00.165Z,23.15
2018-08-31T12:11:00.088Z,23.35
2018-08-31T12:12:52.873Z,23.41
2018-08-31T12:13:52.811Z,23.53
2018-08-31T12:15:45.582Z,23.31
2018-08-31T12:16:45.620Z,23.06
2018-08-31T12:18:38.344Z,22.97
2018-08-31T12:19:38.276Z,22.76
2018-08-31T12:21:31.043Z,22.64
2018-08-31T12:22:30.984Z,22.69
2018-08-31T12:24:22.853Z,22.82
2018-08-31T12:25:22.783Z,22.75
2018-08-31T12:27:14.633Z,22.89
2018-08-31T12:28:14.581Z,22.88
2018-08-31T12:30:07.365Z,22.56
2018-08-31T12:31:07.281Z,22.63
2018-08-31T12:33:00.157Z,22.76
2018-08-31T12:34:00.062Z,22.99
2018-08-31T12:35:52.830Z,23.00
2018-08-31T12:36:52.769Z,22.74
2018-08-31T12:38:45.557Z,22.89
2018-08-31T12:39:45.481Z,22.59
2018-08-31T12:41:38.250Z,22.67
2018-08-31T12:42:38.187Z,22.76
2018-08-31T12:44:30.984Z,23.03
2018-08-31T12:45:30.911Z,22.81
2018-08-31T12:47:23.706Z,22.84
2018-08-31T12:48:23.640Z,22.76
2018-08-31T12:50:16.472Z,22.81
2018-08-31T12:51:16.397Z,22.88
2018-08-31T12:53:09.171Z,22.81
2018-08-31T12:54:09.096Z,22.70
2018-08-31T12:56:01.056Z,22.70
2018-08-31T12:57:00.990Z,22.76
2018-08-31T12:58:53.798Z,22.61
2018-08-31T12:59:53.716Z,22.64
2018-08-31T13:01:46.507Z,22.38
2018-08-31T13:02:46.433Z,22.41
2018-08-31T13:04:39.231Z,22.26
2018-08-31T13:05:39.148Z,22.14
2018-08-31T13:07:31.924Z,21.90
2018-08-31T13:08:31.878Z,21.67
2018-08-31T13:10:24.670Z,21.58
2018-08-31T13:11:24.584Z,21.45
2018-08-31T13:13:17.364Z,21.34
2018-08-31T13:14:17.298Z,21.27
2018-08-31T13:16:10.070Z,21.46
2018-08-31T13:17:10.007Z,21.52
2018-08-31T13:19:02.784Z,21.73
2018-08-31T13:20:02.787Z,21.83
2018-08-31T13:21:55.483Z,21.70
2018-08-31T13:22:55.425Z,21.66
2018-08-31T13:24:48.212Z,21.67
2018-08-31T13:25:48.137Z,21.58
2018-08-31T13:27:40.913Z,21.73
2018-08-31T13:28:40.838Z,21.82
2018-08-31T13:30:33.629Z,21.99
2018-08-31T13:31:33.574Z,22.15
2018-08-31T13:33:26.348Z,22.48
2018-08-31T13:34:26.258Z,22.51
2018-08-31T13:36:19.029Z,22.89
2018-08-31T13:37:18.969Z,22.89
2018-08-31T13:39:11.779Z,22.74
2018-08-31T13:40:11.702Z,22.59
2018-08-31T13:42:04.479Z,22.45
2018-08-31T13:43:04.408Z,22.29
2018-08-31T13:44:57.208Z,22.11
2018-08-31T13:45:57.134Z,21.94
2018-08-31T13:47:49.921Z,21.93
2018-08-31T13:48:49.851Z,21.75
2018-08-31T13:50:42.646Z,21.58
2018-08-31T13:51:42.559Z,21.53
2018-08-31T13:53:35.332Z,21.49
2018-08-31T13:54:35.267Z,21.63
2018-08-31T13:56:28.082Z,21.66
2018-08-31T13:57:28.001Z,21.67
2018-08-31T13:59:20.784Z,21.82
2018-08-31T14:00:20.762Z,21.77
2018-08-31T14:02:13.483Z,21.96
2018-08-31T14:03:13.429Z,21.98
2018-08-31T14:05:06.198Z,22.06
2018-08-31T14:06:06.127Z,22.17
2018-08-31T14:07:58.912Z,22.11
2018-08-31T14:08:58.846Z,22.19
2018-08-31T14:10:51.641Z,22.14
2018-08-31T14:11:51.570Z,22.19
2018-08-31T14:13:44.356Z,22.24
2018-08-31T14:14:44.291Z,22.30
2018-08-31T14:16:36.198Z,22.39
2018-08-31T14:17:36.132Z,22.38
2018-08-31T14:19:27.933Z,22.36
2018-08-31T14:20:27.860Z,22.23
2018-08-31T14:22:20.637Z,22.17
2018-08-31T14:23:20.604Z,22.15
2018-08-31T14:25:13.373Z,21.93
2018-08-31T14:26:13.305Z,22.05
2018-08-31T14:28:06.071Z,21.96
2018-08-31T14:29:06.048Z,21.99
2018-08-31T14:30:58.816Z,22.01
2018-08-31T14:31:58.730Z,22.01
2018-08-31T14:33:51.586Z,21.93
2018-08-31T14:34:51.577Z,21.90
2018-08-31T14:36:44.261Z,21.98
2018-08-31T14:37:44.183Z,22.02
2018-08-31T14:39:37.058Z,21.96
2018-08-31T14:40:36.915Z,21.96
2018-08-31T14:42:29.694Z,22.05
2018-08-31T14:43:29.638Z,22.05
2018-08-31T14:45:22.456Z,21.99
2018-08-31T14:46:22.368Z,22.04
2018-08-31T14:48:15.171Z,22.06
2018-08-31T14:49:15.103Z,22.09
2018-08-31T14:51:06.884Z,22.05
2018-08-31T14:52:06.812Z,22.04
2018-08-31T14:53:58.630Z,22.02
2018-08-31T14:54:58.569Z,22.06
2018-08-31T14:56:50.485Z,22.09
2018-08-31T14:57:50.345Z,22.08
2018-08-31T14:59:42.089Z,21.94
2018-08-31T15:00:42.014Z,21.90
2018-08-31T15:02:33.826Z,22.11
2018-08-31T15:03:33.736Z,22.05
2018-08-31T15:05:25.508Z,22.06
2018-08-31T15:06:25.478Z,21.98
2018-08-31T15:08:17.244Z,22.08
2018-08-31T15:09:17.137Z,22.11
2018-08-31T15:11:08.911Z,22.08
2018-08-31T15:12:08.856Z,22.08
2018-08-31T15:14:00.635Z,21.99
2018-08-31T15:15:00.564Z,22.06
2018-08-31T15:16:52.365Z,22.12
2018-08-31T15:17:52.292Z,22.02
2018-08-31T15:19:44.100Z,22.02
2018-08-31T15:20:44.035Z,21.98
2018-08-31T15:22:36.803Z,21.99
2018-08-31T15:23:36.833Z,21.93
2018-08-31T15:25:28.612Z,21.91
2018-08-31T15:26:28.461Z,21.96
2018-08-31T15:28:20.217Z,22.04
2018-08-31T15:29:20.162Z,22.06
2018-08-31T15:31:11.959Z,22.09
2018-08-31T15:32:11.868Z,22.04
2018-08-31T15:34:03.647Z,21.91
2018-08-31T15:35:03.602Z,21.98
2018-08-31T15:36:55.453Z,21.90
2018-08-31T15:37:55.360Z,21.89
2018-08-31T15:39:47.093Z,21.93
2018-08-31T15:40:47.004Z,21.83
2018-08-31T15:42:38.829Z,21.83
2018-08-31T15:43:38.728Z,21.75
2018-08-31T15:45:30.529Z,21.73
2018-08-31T15:46:30.476Z,21.63
2018-08-31T15:48:22.269Z,21.58
2018-08-31T15:49:22.211Z,21.45
2018-08-31T15:51:13.985Z,21.21
2018-08-31T15:52:13.914Z,21.30
2018-08-31T15:54:05.697Z,21.18
2018-08-31T15:55:05.653Z,21.19
2018-08-31T15:56:57.411Z,21.15
2018-08-31T15:57:57.335Z,21.13
2018-08-31T15:59:49.156Z,21.19
2018-08-31T16:00:49.041Z,21.13
2018-08-31T16:02:40.810Z,21.13
2018-08-31T16:03:40.734Z,21.13
2018-08-31T16:05:32.514Z,21.13
2018-08-31T16:06:32.444Z,21.16
2018-08-31T16:08:24.222Z,21.11
2018-08-31T16:09:24.211Z,21.13
2018-08-31T16:11:15.935Z,21.08
2018-08-31T16:12:15.857Z,21.03
2018-08-31T16:14:07.634Z,20.97
2018-08-31T16:15:07.606Z,20.96
2018-08-31T16:16:59.483Z,20.93
2018-08-31T16:17:59.396Z,20.91
2018-08-31T16:19:52.185Z,20.93
2018-08-31T16:20:52.134Z,20.91
2018-08-31T16:22:44.019Z,20.88
2018-08-31T16:23:43.871Z,20.94
2018-08-31T16:25:36.680Z,20.96
2018-08-31T16:26:36.578Z,20.88
2018-08-31T16:28:28.520Z,20.88
2018-08-31T16:29:28.475Z,20.90
2018-08-31T16:31:20.250Z,20.90
2018-08-31T16:32:20.230Z,20.82
2018-08-31T16:34:13.027Z,20.83
2018-08-31T16:35:12.960Z,20.81
2018-08-31T16:37:04.767Z,20.88
2018-08-31T16:38:04.714Z,20.75
2018-08-31T16:39:57.536Z,20.71
2018-08-31T16:40:57.404Z,20.71
2018-08-31T16:42:50.223Z,20.69
2018-08-31T16:43:50.134Z,20.81
2018-08-31T16:45:42.939Z,20.71
2018-08-31T16:46:42.853Z,20.66
2018-08-31T16:48:35.666Z,20.61
2018-08-31T16:49:35.583Z,20.64
2018-08-31T16:51:28.388Z,20.61
2018-08-31T16:52:28.297Z,20.68
2018-08-31T16:54:21.103Z,20.51
2018-08-31T16:55:21.035Z,20.51
2018-08-31T16:57:12.848Z,20.68
2018-08-31T16:58:12.763Z,20.61
2018-08-31T17:00:05.557Z,20.51
2018-08-31T17:01:05.482Z,20.58
2018-08-31T17:02:57.290Z,20.64
2018-08-31T17:03:57.233Z,20.64
2018-08-31T17:05:50.006Z,20.58
2018-08-31T17:06:49.932Z,20.66
2018-08-31T17:08:41.728Z,20.57
2018-08-31T17:09:41.648Z,20.48
2018-08-31T17:11:33.434Z,20.42
2018-08-31T17:12:33.337Z,20.42
2018-08-31T17:14:25.116Z,20.30
2018-08-31T17:15:25.134Z,20.20
2018-08-31T17:17:17.830Z,20.13
2018-08-31T17:18:17.752Z,20.05
2018-08-31T17:20:10.543Z,19.97
2018-08-31T17:21:10.475Z,19.85
2018-08-31T17:23:02.304Z,19.85
2018-08-31T17:24:02.191Z,19.72
2018-08-31T17:25:54.004Z,19.67
2018-08-31T17:26:53.961Z,19.64
2018-08-31T17:28:45.689Z,19.52
2018-08-31T17:29:45.685Z,19.53
2018-08-31T17:31:38.431Z,19.45
2018-08-31T17:32:38.360Z,19.42
2018-08-31T17:34:31.995Z,19.32
2018-08-31T17:35:31.945Z,19.24
2018-08-31T17:37:24.716Z,19.23
2018-08-31T17:38:24.643Z,19.13
2018-08-31T17:40:17.448Z,19.06
2018-08-31T17:41:17.355Z,19.05
2018-08-31T17:43:10.183Z,18.97
2018-08-31T17:44:10.079Z,18.96
2018-08-31T17:46:02.950Z,18.78
2018-08-31T17:47:02.825Z,18.75
2018-08-31T17:48:55.637Z,18.68
2018-08-31T17:49:55.557Z,18.72
2018-08-31T17:51:47.358Z,18.57
2018-08-31T17:52:47.275Z,18.50
2018-08-31T17:54:39.049Z,18.36
2018-08-31T17:55:38.970Z,18.32
2018-08-31T17:57:30.777Z,18.29
2018-08-31T17:58:30.680Z,18.20
2018-08-31T18:00:22.502Z,18.19
2018-08-31T18:01:22.413Z,18.21
2018-08-31T18:03:15.216Z,18.05
2018-08-31T18:04:15.330Z,18.10
2018-08-31T18:06:07.959Z,17.99
2018-08-31T18:07:07.891Z,17.99
2018-08-31T18:08:59.700Z,17.80
2018-08-31T18:09:59.587Z,17.84
2018-08-31T18:11:51.360Z,17.84
2018-08-31T18:12:51.301Z,17.77
2018-08-31T18:14:43.070Z,17.66
2018-08-31T18:15:43.053Z,17.62
2018-08-31T18:17:34.792Z,17.62
2018-08-31T18:18:34.712Z,17.57
2018-08-31T18:20:26.502Z,17.51
2018-08-31T18:21:26.407Z,17.49
2018-08-31T18:23:18.191Z,17.53
2018-08-31T18:24:18.129Z,17.47
2018-08-31T18:26:09.868Z,17.38
2018-08-31T18:27:09.807Z,17.43
2018-08-31T18:29:01.594Z,17.43
2018-08-31T18:30:01.517Z,17.42
2018-08-31T18:31:53.300Z,17.42
2018-08-31T18:32:53.253Z,17.43
2018-08-31T18:34:44.989Z,17.27